createdAt,value
2018-11-25T00:00:58.690Z,26.87
2018-11-25T00:03:27.192Z,27.50
2018-11-25T00:05:55.637Z,28.57
2018-11-25T00:08:24.105Z,28.80
2018-11-25T00:10:52.543Z,28.70
2018-11-25T00:13:21.044Z,28.60
2018-11-25T00:15:49.502Z,28.63
2018-11-25T00:18:18.192Z,30.47
2018-11-25T00:20:46.487Z,29.17
2018-11-25T00:23:14.966Z,28.30
2018-11-25T00:25:43.423Z,29.87
2018-11-25T00:28:11.884Z,27.33
2018-11-25T00:30:40.321Z,29.97
2018-11-25T00:33:08.790Z,29.47
2018-11-25T00:35:37.240Z,31.00
2018-11-25T00:38:05.950Z,29.87
2018-11-25T00:40:34.388Z,30.30
2018-11-25T00:43:02.859Z,31.27
2018-11-25T00:45:31.325Z,30.00
2018-11-25T00:47:59.772Z,31.47
2018-11-25T00:50:28.242Z,32.80
2018-11-25T00:52:56.666Z,32.30
2018-11-25T00:55:25.131Z,32.70
2018-11-25T00:57:53.565Z,34.60
2018-11-25T01:00:22.027Z,30.50
2018-11-25T01:02:50.901Z,32.17
2018-11-25T01:05:19.416Z,32.20
2018-11-25T01:07:47.854Z,31.50
2018-11-25T01:10:17.003Z,32.73
2018-11-25T01:12:45.849Z,29.93
2018-11-25T01:15:15.287Z,33.83
2018-11-25T01:17:43.871Z,32.57
2018-11-25T01:20:14.532Z,32.60
2018-11-25T01:22:42.993Z,34.37
2018-11-25T01:25:11.880Z,33.43
2018-11-25T01:27:40.345Z,34.13
2018-11-25T01:30:12.837Z,31.97
2018-11-25T01:32:41.324Z,34.67
2018-11-25T01:35:10.767Z,32.37
2018-11-25T01:37:39.277Z,34.30
2018-11-25T01:40:12.950Z,35.57
2018-11-25T01:42:41.426Z,34.53
2018-11-25T01:45:11.293Z,33.27
2018-11-25T01:47:39.832Z,31.57
2018-11-25T01:50:10.188Z,35.70
2018-11-25T01:52:38.774Z,34.20
2018-11-25T01:55:09.807Z,34.57
2018-11-25T01:57:38.253Z,37.47
2018-11-25T02:00:13.703Z,33.77
2018-11-25T02:02:42.195Z,35.83
2018-11-25T02:05:10.697Z,33.10
2018-11-25T02:07:39.141Z,36.37
2018-11-25T02:10:15.879Z,34.57
2018-11-25T02:12:44.348Z,35.00
2018-11-25T02:15:13.867Z,34.00
2018-11-25T02:17:42.349Z,34.43
2018-11-25T02:20:13.906Z,33.53
2018-11-25T02:22:42.352Z,32.40
2018-11-25T02:25:10.885Z,34.40
2018-11-25T02:27:39.331Z,35.23
2018-11-25T02:30:10.113Z,33.77
2018-11-25T02:32:38.563Z,34.10
2018-11-25T02:35:08.823Z,36.10
2018-11-25T02:37:37.306Z,38.30
2018-11-25T02:40:07.974Z,34.63
2018-11-25T02:42:36.419Z,34.30
2018-11-25T02:45:05.531Z,36.00
2018-11-25T02:47:33.970Z,34.47
2018-11-25T02:50:02.462Z,38.10
2018-11-25T02:52:30.915Z,35.57
2018-11-25T02:54:59.376Z,37.17
2018-11-25T02:57:27.819Z,32.60
2018-11-25T02:59:56.287Z,37.50
2018-11-25T03:02:24.744Z,33.77
2018-11-25T03:04:53.289Z,35.13
2018-11-25T03:07:21.831Z,37.80
2018-11-25T03:09:50.303Z,38.33
2018-11-25T03:12:18.768Z,33.60
2018-11-25T03:14:47.231Z,37.07
2018-11-25T03:17:15.676Z,36.33
2018-11-25T03:19:44.168Z,35.93
2018-11-25T03:22:12.619Z,35.83
2018-11-25T03:24:41.079Z,34.47
2018-11-25T03:27:09.556Z,34.43
2018-11-25T03:29:38.004Z,34.50
2018-11-25T03:32:06.601Z,36.27
2018-11-25T03:34:35.050Z,35.17
2018-11-25T03:37:03.525Z,35.93
2018-11-25T03:39:31.955Z,38.93
2018-11-25T03:42:00.507Z,37.80
2018-11-25T03:44:28.962Z,36.60
2018-11-25T03:46:57.428Z,36.00
2018-11-25T03:49:25.880Z,35.60
2018-11-25T03:51:54.373Z,36.60
2018-11-25T03:54:22.810Z,35.30
2018-11-25T03:56:51.274Z,34.60
2018-11-25T03:59:19.731Z,35.00
2018-11-25T04:01:48.194Z,36.10
2018-11-25T04:04:16.642Z,36.30
2018-11-25T04:06:45.119Z,34.60
2018-11-25T04:09:13.579Z,35.30
2018-11-25T04:11:42.083Z,34.87
2018-11-25T04:14:10.526Z,37.10
2018-11-25T04:16:39.039Z,35.23
2018-11-25T04:19:07.515Z,36.33
2018-11-25T04:21:35.993Z,36.63
2018-11-25T04:24:04.468Z,35.80
2018-11-25T04:26:32.930Z,34.80
2018-11-25T04:29:01.376Z,37.30
2018-11-25T04:31:29.836Z,34.73
2018-11-25T04:33:58.281Z,37.50
2018-11-25T04:36:26.753Z,36.07
2018-11-25T04:38:55.309Z,35.23
2018-11-25T04:41:23.775Z,34.43
2018-11-25T04:43:52.232Z,34.77
2018-11-25T04:46:20.695Z,33.47
2018-11-25T04:48:49.154Z,35.50
2018-11-25T04:51:17.610Z,37.97
2018-11-25T04:53:46.051Z,36.60
2018-11-25T04:56:14.525Z,37.13
2018-11-25T04:58:42.970Z,34.83
2018-11-25T05:01:11.435Z,36.20
2018-11-25T05:03:39.863Z,35.40
2018-11-25T05:06:08.330Z,35.23
2018-11-25T05:08:36.781Z,33.70
2018-11-25T05:11:05.274Z,36.90
2018-11-25T05:13:33.735Z,36.10
2018-11-25T05:16:02.171Z,37.50
2018-11-25T05:18:30.623Z,36.37
2018-11-25T05:20:59.076Z,39.40
2018-11-25T05:23:27.531Z,37.50
2018-11-25T05:25:55.988Z,35.40
2018-11-25T05:28:24.454Z,36.07
2018-11-25T05:30:52.886Z,34.63
2018-11-25T05:33:21.346Z,35.10
2018-11-25T05:35:49.793Z,36.00
2018-11-25T05:38:18.243Z,34.33
2018-11-25T05:40:46.679Z,36.27
2018-11-25T05:43:15.144Z,39.20
2018-11-25T05:45:43.579Z,38.23
2018-11-25T05:48:12.037Z,37.90
2018-11-25T05:50:40.491Z,35.40
2018-11-25T05:53:08.955Z,36.67
2018-11-25T05:55:37.382Z,39.67
2018-11-25T05:58:06.076Z,37.10
2018-11-25T06:00:34.598Z,38.97
2018-11-25T06:03:03.066Z,38.10
2018-11-25T06:05:31.503Z,38.23
2018-11-25T06:07:59.966Z,38.27
2018-11-25T06:10:28.403Z,37.00
2018-11-25T06:12:56.865Z,38.77
2018-11-25T06:15:25.311Z,37.20
2018-11-25T06:17:53.783Z,39.40
2018-11-25T06:20:22.235Z,39.37
2018-11-25T06:22:50.699Z,38.00
2018-11-25T06:25:20.399Z,38.17
2018-11-25T06:27:48.885Z,38.43
2018-11-25T06:30:18.435Z,37.20
2018-11-25T06:32:46.906Z,38.37
2018-11-25T06:35:17.169Z,36.47
2018-11-25T06:37:45.675Z,38.27
2018-11-25T06:40:19.085Z,38.27
2018-11-25T06:42:47.610Z,39.57
2018-11-25T06:45:21.492Z,37.50
2018-11-25T06:47:49.955Z,37.10
2018-11-25T06:50:18.434Z,37.83
2018-11-25T06:52:46.904Z,40.50
2018-11-25T06:55:15.352Z,36.90
2018-11-25T06:57:43.839Z,38.80
2018-11-25T07:00:20.985Z,37.97
2018-11-25T07:02:49.478Z,35.53
2018-11-25T07:05:17.969Z,38.30
2018-11-25T07:07:46.443Z,37.97
2018-11-25T07:10:16.935Z,37.17
2018-11-25T07:12:45.464Z,38.77
2018-11-25T07:15:15.064Z,37.07
2018-11-25T07:17:43.548Z,37.77
2018-11-25T07:20:13.134Z,39.07
2018-11-25T07:22:41.606Z,37.40
2018-11-25T07:25:13.367Z,36.80
2018-11-25T07:27:41.857Z,36.90
2018-11-25T07:30:13.764Z,38.23
2018-11-25T07:32:42.243Z,34.97
2018-11-25T07:35:10.696Z,37.97
2018-11-25T07:37:39.167Z,37.57
2018-11-25T07:40:11.978Z,41.10
2018-11-25T07:42:40.438Z,34.13
2018-11-25T07:45:10.394Z,38.57
2018-11-25T07:47:38.851Z,37.80
2018-11-25T07:50:08.868Z,37.90
2018-11-25T07:52:37.456Z,37.57
2018-11-25T07:55:09.620Z,37.07
2018-11-25T07:57:38.078Z,36.40
2018-11-25T08:00:10.388Z,36.50
2018-11-25T08:02:41.628Z,36.20
2018-11-25T08:05:08.944Z,36.47
2018-11-25T08:07:37.499Z,35.17
2018-11-25T08:10:08.788Z,37.00
2018-11-25T08:12:37.223Z,36.70
2018-11-25T08:15:07.330Z,36.60
2018-11-25T08:17:35.784Z,36.00
2018-11-25T08:20:04.656Z,39.00
2018-11-25T08:22:33.110Z,34.60
2018-11-25T08:25:01.594Z,37.50
2018-11-25T08:27:30.029Z,35.03
2018-11-25T08:29:58.517Z,36.63
2018-11-25T08:32:26.952Z,37.80
2018-11-25T08:34:55.428Z,37.63
2018-11-25T08:37:23.874Z,36.17
2018-11-25T08:39:52.331Z,35.70
2018-11-25T08:42:20.779Z,37.57
2018-11-25T08:44:49.251Z,35.97
2018-11-25T08:47:17.707Z,37.60
2018-11-25T08:49:46.192Z,38.87
2018-11-25T08:52:14.634Z,38.43
2018-11-25T08:54:43.100Z,38.37
2018-11-25T08:57:11.549Z,37.93
2018-11-25T08:59:40.012Z,39.70
2018-11-25T09:02:08.463Z,39.50
2018-11-25T09:04:36.956Z,39.03
2018-11-25T09:07:05.479Z,39.20
2018-11-25T09:09:33.927Z,39.73
2018-11-25T09:12:02.375Z,39.83
2018-11-25T09:14:30.869Z,38.80
2018-11-25T09:16:59.322Z,41.77
2018-11-25T09:19:27.813Z,39.17
2018-11-25T09:21:56.247Z,41.40
2018-11-25T09:24:24.730Z,42.00
2018-11-25T09:26:53.168Z,37.77
2018-11-25T09:29:21.636Z,39.63
2018-11-25T09:31:50.078Z,39.90
2018-11-25T09:34:18.542Z,39.83
2018-11-25T09:36:47.036Z,34.90
2018-11-25T09:39:16.335Z,37.73
2018-11-25T09:41:44.771Z,39.97
2018-11-25T09:44:13.257Z,37.57
2018-11-25T09:46:42.688Z,38.23
2018-11-25T09:49:10.186Z,39.87
2018-11-25T09:51:38.651Z,38.60
2018-11-25T09:54:07.115Z,38.20
2018-11-25T09:56:35.583Z,39.80
2018-11-25T09:59:04.056Z,38.73
2018-11-25T10:01:32.519Z,38.90
2018-11-25T10:04:00.956Z,39.40
2018-11-25T10:06:29.437Z,38.13
2018-11-25T10:08:57.898Z,37.37
2018-11-25T10:11:26.389Z,37.27
2018-11-25T10:13:54.831Z,39.90
2018-11-25T10:16:23.284Z,37.87
2018-11-25T10:18:51.732Z,37.20
2018-11-25T10:21:20.194Z,42.07
2018-11-25T10:23:48.641Z,38.70
2018-11-25T10:26:17.146Z,38.50
2018-11-25T10:28:45.599Z,38.90
2018-11-25T10:31:14.070Z,37.40
2018-11-25T10:33:42.516Z,37.07
2018-11-25T10:36:10.989Z,36.97
2018-11-25T10:38:39.424Z,36.50
2018-11-25T10:41:07.889Z,38.80
2018-11-25T10:43:36.327Z,39.23
2018-11-25T10:46:04.827Z,35.90
2018-11-25T10:48:33.271Z,39.03
2018-11-25T10:51:01.740Z,38.10
2018-11-25T10:53:30.197Z,40.17
2018-11-25T10:55:58.665Z,36.97
2018-11-25T10:58:27.150Z,38.50
2018-11-25T11:00:59.776Z,34.30
2018-11-25T11:03:33.504Z,37.37
2018-11-25T11:06:07.069Z,36.23
2018-11-25T11:08:35.544Z,36.57
2018-11-25T11:11:04.019Z,35.80
2018-11-25T11:13:32.483Z,36.23
2018-11-25T11:16:00.944Z,35.73
2018-11-25T11:18:29.388Z,32.80
2018-11-25T11:20:57.839Z,33.30
2018-11-25T11:23:26.284Z,37.03
2018-11-25T11:25:54.775Z,33.37
2018-11-25T11:28:23.211Z,32.57
2018-11-25T11:30:51.660Z,33.40
2018-11-25T11:33:20.114Z,31.83
2018-11-25T11:35:48.592Z,34.77
2018-11-25T11:38:17.038Z,30.27
2018-11-25T11:40:45.514Z,31.50
2018-11-25T11:43:13.936Z,33.57
2018-11-25T11:45:42.434Z,34.43
2018-11-25T11:48:10.887Z,33.40
2018-11-25T11:50:39.396Z,31.20
2018-11-25T11:53:07.922Z,34.30
2018-11-25T11:55:36.439Z,32.13
2018-11-25T11:58:04.984Z,29.70
2018-11-25T12:00:33.422Z,33.10
2018-11-25T12:03:01.895Z,27.60
2018-11-25T12:05:30.340Z,26.27
2018-11-25T12:07:58.817Z,32.97
2018-11-25T12:10:27.298Z,30.60
2018-11-25T12:12:55.761Z,33.03
2018-11-25T12:15:30.878Z,35.57
2018-11-25T12:17:55.058Z,34.90
2018-11-25T12:20:24.232Z,34.77
2018-11-25T12:22:53.779Z,35.00
2018-11-25T12:25:22.271Z,35.27
2018-11-25T12:27:50.744Z,34.30
2018-11-25T12:30:19.196Z,36.83
2018-11-25T12:32:49.009Z,35.80
2018-11-25T12:35:17.934Z,32.80
2018-11-25T12:37:46.438Z,31.10
2018-11-25T12:40:16.018Z,31.70
2018-11-25T12:42:46.075Z,33.13
2018-11-25T12:45:15.677Z,34.07
2018-11-25T12:47:44.146Z,33.53
2018-11-25T12:50:23.551Z,32.97
2018-11-25T12:52:52.059Z,31.97
2018-11-25T12:55:23.210Z,35.13
2018-11-25T12:57:52.010Z,32.83
2018-11-25T13:00:25.195Z,32.47
2018-11-25T13:02:53.686Z,29.30
2018-11-25T13:05:22.155Z,31.50
2018-11-25T13:07:50.723Z,30.80
2018-11-25T13:10:19.251Z,31.80
2018-11-25T13:12:47.728Z,31.20
2018-11-25T13:15:16.174Z,29.90
2018-11-25T13:17:44.650Z,27.60
2018-11-25T13:20:14.898Z,28.83
2018-11-25T13:22:43.375Z,28.47
2018-11-25T13:25:12.955Z,30.10
2018-11-25T13:27:41.429Z,29.23
2018-11-25T13:30:20.292Z,24.70
2018-11-25T13:32:49.023Z,29.97
2018-11-25T13:35:17.534Z,27.23
2018-11-25T13:37:46.036Z,29.07
2018-11-25T13:40:16.353Z,28.27
2018-11-25T13:42:44.852Z,26.60
2018-11-25T13:45:13.307Z,26.97
2018-11-25T13:47:41.822Z,25.80
2018-11-25T13:50:11.392Z,26.87
2018-11-25T13:52:39.913Z,27.03
2018-11-25T13:55:10.722Z,26.10
2018-11-25T13:57:39.195Z,27.90
2018-11-25T14:00:18.176Z,26.27
2018-11-25T14:02:46.642Z,26.00
2018-11-25T14:05:15.099Z,26.20
2018-11-25T14:07:43.579Z,26.20
2018-11-25T14:10:17.439Z,24.90
2018-11-25T14:12:45.894Z,24.60
2018-11-25T14:15:14.344Z,25.77
2018-11-25T14:17:42.807Z,23.70
2018-11-25T14:20:11.337Z,23.80
2018-11-25T14:22:39.802Z,24.63
2018-11-25T14:25:10.940Z,24.10
2018-11-25T14:27:39.456Z,25.23
2018-11-25T14:30:13.387Z,25.10
2018-11-25T14:32:40.555Z,25.23
2018-11-25T14:35:10.878Z,23.90
2018-11-25T14:37:39.400Z,24.07
2018-11-25T14:40:10.228Z,23.80
2018-11-25T14:42:38.958Z,22.40
2018-11-25T14:45:09.897Z,23.40
2018-11-25T14:47:38.385Z,24.20
2018-11-25T14:50:15.870Z,24.43
2018-11-25T14:52:45.552Z,23.43
2018-11-25T14:55:14.737Z,22.67
2018-11-25T14:57:43.211Z,21.97
2018-11-25T15:00:16.018Z,20.77
2018-11-25T15:02:45.477Z,22.77
2018-11-25T15:05:17.596Z,22.47
2018-11-25T15:07:46.081Z,21.37
2018-11-25T15:10:15.212Z,21.57
2018-11-25T15:12:43.711Z,21.60
2018-11-25T15:15:13.635Z,23.33
2018-11-25T15:17:43.211Z,22.83
2018-11-25T15:20:12.819Z,19.10
2018-11-25T15:22:42.673Z,21.17
2018-11-25T15:25:13.630Z,20.30
2018-11-25T15:27:42.144Z,19.47
2018-11-25T15:30:11.645Z,20.00
2018-11-25T15:32:40.086Z,19.60
2018-11-25T15:35:10.827Z,19.97
2018-11-25T15:37:40.732Z,19.73
2018-11-25T15:40:14.058Z,20.07
2018-11-25T15:42:42.491Z,19.03
2018-11-25T15:45:11.473Z,19.30
2018-11-25T15:47:41.378Z,19.83
2018-11-25T15:50:11.644Z,19.43
2018-11-25T15:52:40.111Z,19.30
2018-11-25T15:55:12.235Z,19.80
2018-11-25T15:57:40.721Z,18.67
2018-11-25T16:00:12.564Z,19.10
2018-11-25T16:02:41.018Z,18.90
2018-11-25T16:05:11.295Z,19.27
2018-11-25T16:07:39.799Z,18.77
2018-11-25T16:10:11.621Z,18.67
2018-11-25T16:12:40.698Z,18.00
2018-11-25T16:15:10.866Z,18.50
2018-11-25T16:17:39.319Z,17.07
2018-11-25T16:20:10.017Z,18.87
2018-11-25T16:22:38.543Z,18.37
2018-11-25T16:25:44.989Z,16.27
2018-11-25T16:28:15.290Z,17.40
2018-11-25T16:30:43.783Z,16.93
2018-11-25T16:33:12.209Z,17.10
2018-11-25T16:35:40.685Z,16.93
2018-11-25T16:38:09.158Z,16.27
2018-11-25T16:40:37.665Z,16.17
2018-11-25T16:43:06.399Z,16.07
2018-11-25T16:45:34.873Z,16.10
2018-11-25T16:48:03.446Z,16.13
2018-11-25T16:50:31.979Z,17.00
2018-11-25T16:53:00.452Z,14.77
2018-11-25T16:55:28.915Z,16.37
2018-11-25T16:57:57.360Z,17.00
2018-11-25T17:00:25.831Z,17.40
2018-11-25T17:02:54.292Z,16.67
2018-11-25T17:05:25.588Z,15.67
2018-11-25T17:08:02.856Z,15.20
2018-11-25T17:10:31.318Z,15.50
2018-11-25T17:12:59.772Z,16.17
2018-11-25T17:15:28.998Z,17.47
2018-11-25T17:17:57.433Z,16.57
2018-11-25T17:20:25.898Z,16.17
2018-11-25T17:22:54.357Z,16.73
2018-11-25T17:25:22.991Z,17.37
2018-11-25T17:27:51.411Z,16.20
2018-11-25T17:30:20.702Z,17.30
2018-11-25T17:32:49.478Z,17.30
2018-11-25T17:35:22.300Z,17.83
2018-11-25T17:37:50.753Z,17.30
2018-11-25T17:40:19.212Z,17.53
2018-11-25T17:42:48.022Z,16.90
2018-11-25T17:45:16.460Z,15.23
2018-11-25T17:47:44.986Z,18.30
2018-11-25T17:50:17.812Z,16.20
2018-11-25T17:52:46.576Z,16.77
2018-11-25T17:55:15.405Z,17.50
2018-11-25T17:57:44.048Z,16.63
2018-11-25T18:00:14.387Z,16.40
2018-11-25T18:02:42.839Z,17.90
2018-11-25T18:05:11.323Z,16.60
2018-11-25T18:07:39.795Z,14.63
2018-11-25T18:10:10.420Z,14.50
2018-11-25T18:12:38.890Z,16.60
2018-11-25T18:15:15.749Z,15.00
2018-11-25T18:17:48.840Z,14.67
2018-11-25T18:20:17.278Z,16.77
2018-11-25T18:22:47.654Z,15.20
2018-11-25T18:25:16.127Z,16.40
2018-11-25T18:27:44.616Z,16.57
2018-11-25T18:30:14.569Z,17.10
2018-11-25T18:32:43.814Z,18.30
2018-11-25T18:35:12.288Z,17.83
2018-11-25T18:37:40.762Z,16.83
2018-11-25T18:40:10.931Z,19.03
2018-11-25T18:42:39.502Z,18.10
2018-11-25T18:45:11.115Z,18.87
2018-11-25T18:47:39.736Z,18.20
2018-11-25T18:50:10.855Z,19.17
2018-11-25T18:52:39.324Z,18.10
2018-11-25T18:55:06.612Z,19.63
2018-11-25T18:57:35.099Z,21.20
2018-11-25T19:00:03.955Z,19.93
2018-11-25T19:02:41.196Z,19.10
2018-11-25T19:05:09.783Z,19.47
2018-11-25T19:07:38.278Z,18.17
2018-11-25T19:10:13.344Z,20.17
2018-11-25T19:12:44.354Z,20.30
2018-11-25T19:15:11.661Z,20.33
2018-11-25T19:17:40.264Z,19.80
2018-11-25T19:20:14.059Z,19.27
2018-11-25T19:22:42.747Z,19.33
2018-11-25T19:25:12.622Z,19.60
2018-11-25T19:27:41.270Z,19.90
2018-11-25T19:30:12.160Z,20.30
2018-11-25T19:32:40.683Z,19.63
2018-11-25T19:35:10.979Z,19.17
2018-11-25T19:37:39.537Z,19.67
2018-11-25T19:40:10.951Z,18.90
2018-11-25T19:42:39.442Z,18.33
2018-11-25T19:45:10.512Z,19.50
2018-11-25T19:47:38.987Z,20.87
2018-11-25T19:50:11.608Z,19.23
2018-11-25T19:52:40.087Z,19.73
2018-11-25T19:55:08.576Z,18.83
2018-11-25T19:57:37.017Z,19.83
2018-11-25T20:00:09.729Z,19.27
2018-11-25T20:02:38.180Z,18.70
2018-11-25T20:05:07.433Z,18.60
2018-11-25T20:07:35.875Z,19.40
2018-11-25T20:10:04.373Z,18.40
2018-11-25T20:12:38.024Z,19.40
2018-11-25T20:15:06.717Z,18.27
2018-11-25T20:17:35.196Z,19.37
2018-11-25T20:20:04.017Z,18.40
2018-11-25T20:22:32.468Z,17.70
2018-11-25T20:25:02.216Z,16.60
2018-11-25T20:27:34.732Z,17.20
2018-11-25T20:30:03.236Z,17.50
2018-11-25T20:32:36.768Z,16.77
2018-11-25T20:35:05.614Z,17.20
2018-11-25T20:37:34.085Z,17.90
2018-11-25T20:40:02.542Z,18.97
2018-11-25T20:42:30.988Z,17.33
2018-11-25T20:44:59.448Z,17.13
2018-11-25T20:47:27.885Z,18.17
2018-11-25T20:49:56.345Z,18.20
2018-11-25T20:52:30.162Z,18.13
2018-11-25T20:54:58.641Z,17.77
2018-11-25T20:57:27.073Z,16.97
2018-11-25T20:59:55.543Z,17.10
2018-11-25T21:02:28.944Z,18.63
2018-11-25T21:04:52.669Z,18.87
2018-11-25T21:07:21.111Z,17.57
2018-11-25T21:09:49.568Z,18.77
2018-11-25T21:12:18.014Z,19.00
2018-11-25T21:14:46.498Z,17.57
2018-11-25T21:17:14.926Z,18.03
2018-11-25T21:19:43.393Z,17.40
2018-11-25T21:22:11.829Z,18.80
2018-11-25T21:24:40.319Z,18.53
2018-11-25T21:27:08.808Z,17.40
2018-11-25T21:29:37.284Z,18.33
2018-11-25T21:32:05.874Z,18.60
2018-11-25T21:34:34.322Z,17.27
2018-11-25T21:37:02.791Z,17.37
2018-11-25T21:39:31.224Z,17.63
2018-11-25T21:41:59.694Z,17.80
2018-11-25T21:44:28.144Z,18.77
2018-11-25T21:46:56.614Z,18.20
2018-11-25T21:49:25.058Z,18.97
2018-11-25T21:51:53.566Z,17.87
2018-11-25T21:54:22.018Z,19.87
2018-11-25T21:56:50.474Z,17.80
2018-11-25T21:59:18.921Z,18.70
2018-11-25T22:01:47.379Z,19.40
2018-11-25T22:04:15.814Z,19.57
2018-11-25T22:06:44.275Z,19.50
2018-11-25T22:09:12.730Z,19.00
2018-11-25T22:11:41.196Z,18.03
2018-11-25T22:14:09.651Z,18.20
2018-11-25T22:16:38.112Z,18.77
2018-11-25T22:19:06.582Z,18.30
2018-11-25T22:21:35.054Z,19.57
2018-11-25T22:24:03.492Z,17.67
2018-11-25T22:26:31.977Z,19.73
2018-11-25T22:29:00.407Z,19.80
2018-11-25T22:31:28.867Z,19.03
2018-11-25T22:33:57.309Z,20.10
2018-11-25T22:36:25.803Z,20.90
2018-11-25T22:38:54.280Z,20.37
2018-11-25T22:41:22.722Z,19.57
2018-11-25T22:43:51.222Z,19.40
2018-11-25T22:46:19.658Z,19.63
2018-11-25T22:48:48.111Z,20.10
2018-11-25T22:51:16.548Z,22.37
2018-11-25T22:53:46.600Z,19.50
2018-11-25T22:56:15.262Z,18.77
2018-11-25T22:58:43.738Z,19.20
2018-11-25T23:01:12.180Z,17.10
2018-11-25T23:03:40.659Z,17.33
2018-11-25T23:06:20.443Z,17.80
2018-11-25T23:08:48.903Z,17.87
2018-11-25T23:11:17.376Z,18.33
2018-11-25T23:13:45.823Z,17.80
2018-11-25T23:16:14.259Z,17.97
2018-11-25T23:18:42.733Z,18.90
2018-11-25T23:21:11.170Z,17.83
2018-11-25T23:23:39.640Z,18.40
2018-11-25T23:26:08.113Z,19.17
2018-11-25T23:28:36.731Z,19.30
2018-11-25T23:31:05.293Z,18.60
2018-11-25T23:33:33.783Z,20.87
2018-11-25T23:36:02.248Z,22.10
2018-11-25T23:38:30.730Z,16.27
2018-11-25T23:40:59.191Z,19.77
2018-11-25T23:43:27.663Z,19.90
2018-11-25T23:45:56.100Z,19.43
2018-11-25T23:48:24.567Z,18.73
2018-11-25T23:50:53.014Z,18.13
2018-11-25T23:53:21.481Z,18.07
2018-11-25T23:55:49.919Z,21.20
2018-11-25T23:58:18.391Z,24.13
